Time;durP1;ratioP1;P1;durP2;ratioP2;P2;SDS_P1;SDS_P2;PMS_P1;PMS_P2;Temp;Humidity;BMP_temperature;BMP_pressure;BME280_temperature;BME280_humidity;BME280_pressure;Samples;Min_cycle;Max_cycle;Signal;HPM_P1;HPM_P2
2022/10/06 00:00:48;;;;;;;5.53;5.32;;;;;;;;;;5002084;28;20113;-70
2022/10/06 00:03:14;;;;;;;5.53;5.32;;;;;;;;;;4993703;28;20061;-70
2022/10/06 00:05:40;;;;;;;5.18;4.97;;;;;;;;;;4997839;28;20034;-70
2022/10/06 00:08:06;;;;;;;5.10;4.90;;;;;;;;;;5001137;28;20470;-70
2022/10/06 00:10:32;;;;;;;5.25;5.05;;;;;;;;;;4998203;28;20096;-70
2022/10/06 00:12:57;;;;;;;5.00;4.80;;;;;;;;;;5003209;28;20045;-69
2022/10/06 00:15:29;;;;;;;5.60;5.40;;;;;;;;;;4998118;28;20037;-70
2022/10/06 00:17:56;;;;;;;5.50;5.30;;;;;;;;;;4994838;28;20486;-70
2022/10/06 00:20:22;;;;;;;5.20;5.00;;;;;;;;;;5003196;28;20169;-72
2022/10/06 00:22:48;;;;;;;5.53;5.32;;;;;;;;;;4995904;28;20034;-70
2022/10/06 00:25:21;;;;;;;5.50;5.30;;;;;;;;;;4997044;28;20068;-71
2022/10/06 00:27:49;;;;;;;5.30;5.10;;;;;;;;;;5006153;28;20037;-70
2022/10/06 00:30:17;;;;;;;;;;;;;;;;;;5002435;28;20158;-72
2022/10/06 00:32:51;;;;;;;5.53;5.32;;;;;;;;;;5001151;28;19919;-71
2022/10/06 00:35:17;;;;;;;5.55;5.35;;;;;;;;;;5005313;28;20041;-71
2022/10/06 00:37:42;;;;;;;5.53;5.32;;;;;;;;;;5000147;28;20033;-71
2022/10/06 00:40:09;;;;;;;5.15;4.95;;;;;;;;;;5001390;28;20061;-71
2022/10/06 00:42:49;;;;;;;5.25;5.05;;;;;;;;;;5000540;28;20056;-71
2022/10/06 00:45:17;;;;;;;5.35;5.15;;;;;;;;;;4992904;28;20549;-71
2022/10/06 00:47:42;;;;;;;5.28;5.07;;;;;;;;;;5000475;28;20036;-71
2022/10/06 00:50:11;;;;;;;5.68;5.45;;;;;;;;;;4995681;28;20113;-71
2022/10/06 00:52:39;;;;;;;5.50;5.30;;;;;;;;;;5005548;28;20046;-71
2022/10/06 00:55:08;;;;;;;5.40;5.20;;;;;;;;;;4996834;28;20038;-71
2022/10/06 00:57:38;;;;;;;5.50;5.30;;;;;;;;;;5003571;28;20137;-71
2022/10/06 01:00:06;;;;;;;5.07;4.88;;;;;;;;;;4995507;28;20039;-70
2022/10/06 01:02:38;;;;;;;5.30;5.10;;;;;;;;;;5001146;28;20556;-69
2022/10/06 01:05:04;;;;;;;5.30;5.10;;;;;;;;;;4991995;28;21364;-70
2022/10/06 01:07:31;;;;;;;5.40;5.20;;;;;;;;;;5001928;28;20040;-70
2022/10/06 01:09:58;;;;;;;5.47;5.28;;;;;;;;;;4997219;28;20037;-70
2022/10/06 01:12:26;;;;;;;5.28;5.07;;;;;;;;;;4994334;28;20041;-70
2022/10/06 01:14:52;;;;;;;5.25;5.05;;;;;;;;;;5003323;28;20030;-70
2022/10/06 01:17:23;;;;;;;5.30;5.10;;;;;;;;;;4997087;28;20040;-70
2022/10/06 01:20:04;;;;;;;5.00;4.80;;;;;;;;;;5002177;28;20120;-70
2022/10/06 01:22:42;;;;;;;5.30;5.10;;;;;;;;;;5005422;28;20116;-70
2022/10/06 01:25:11;;;;;;;5.18;4.97;;;;;;;;;;4998891;28;20597;-72
2022/10/06 01:27:39;;;;;;;5.20;5.00;;;;;;;;;;5005933;28;20040;-69
2022/10/06 01:30:12;;;;;;;5.50;5.30;;;;;;;;;;5005133;28;20072;-70
2022/10/06 01:32:39;;;;;;;5.45;5.25;;;;;;;;;;5000343;28;20387;-70
2022/10/06 01:35:06;;;;;;;5.10;4.90;;;;;;;;;;5000555;28;20553;-70
2022/10/06 01:37:31;;;;;;;5.10;4.90;;;;;;;;;;4994501;28;20065;-70
2022/10/06 01:39:57;;;;;;;5.10;4.90;;;;;;;;;;5015816;28;20054;-70
2022/10/06 01:42:23;;;;;;;5.18;4.97;;;;;;;;;;4999915;28;20034;-70
2022/10/06 01:44:49;;;;;;;5.35;5.15;;;;;;;;;;4994777;28;21380;-70
2022/10/06 01:47:15;;;;;;;5.05;4.85;;;;;;;;;;4997005;28;20030;-70
2022/10/06 01:49:40;;;;;;;5.30;5.10;;;;;;;;;;5002753;28;20034;-70
2022/10/06 01:52:07;;;;;;;5.20;5.00;;;;;;;;;;5000892;28;20069;-70
2022/10/06 01:54:34;;;;;;;5.03;4.82;;;;;;;;;;4994695;28;20085;-70
2022/10/06 01:57:00;;;;;;;5.53;5.32;;;;;;;;;;4999426;28;20041;-70
2022/10/06 01:59:26;;;;;;;5.50;5.30;;;;;;;;;;4992761;28;20031;-70
2022/10/06 02:01:52;;;;;;;5.38;5.18;;;;;;;;;;5006127;28;20044;-70
2022/10/06 02:04:19;;;;;;;5.13;4.93;;;;;;;;;;4999275;28;20072;-69
2022/10/06 02:06:44;;;;;;;5.40;5.20;;;;;;;;;;4996792;28;20489;-70
2022/10/06 02:09:10;;;;;;;5.13;4.93;;;;;;;;;;5002670;28;20425;-70
2022/10/06 02:11:38;;;;;;;5.40;5.20;;;;;;;;;;5000113;28;20056;-69
2022/10/06 02:14:04;;;;;;;5.20;5.00;;;;;;;;;;5000065;28;20061;-70
2022/10/06 02:16:31;;;;;;;5.40;5.20;;;;;;;;;;4997995;28;20394;-70
2022/10/06 02:18:56;;;;;;;5.03;4.82;;;;;;;;;;5001093;28;20038;-70
2022/10/06 02:21:23;;;;;;;5.22;5.03;;;;;;;;;;4996887;28;20035;-70
2022/10/06 02:23:49;;;;;;;5.10;4.90;;;;;;;;;;4991503;28;20077;-69
2022/10/06 02:26:16;;;;;;;5.15;4.95;;;;;;;;;;5002362;28;20048;-69
2022/10/06 02:28:44;;;;;;;5.40;5.20;;;;;;;;;;4989987;28;20038;-70
2022/10/06 02:31:12;;;;;;;5.25;5.05;;;;;;;;;;4997096;28;20038;-70
2022/10/06 02:33:40;;;;;;;5.03;4.82;;;;;;;;;;4998892;28;20548;-70
2022/10/06 02:36:07;;;;;;;5.25;5.05;;;;;;;;;;5003212;28;20714;-69
2022/10/06 02:38:33;;;;;;;5.53;5.32;;;;;;;;;;4989681;28;20034;-70
2022/10/06 02:41:00;;;;;;;5.13;4.93;;;;;;;;;;4995917;28;20072;-69
2022/10/06 02:43:30;;;;;;;5.40;5.20;;;;;;;;;;4996421;28;20061;-69
2022/10/06 02:45:58;;;;;;;;;;;;;;;;;;4995208;28;20042;-70
2022/10/06 02:48:25;;;;;;;5.32;5.13;;;;;;;;;;4996736;28;19917;-70
2022/10/06 02:50:57;;;;;;;5.50;5.30;;;;;;;;;;4999815;28;20033;-70
2022/10/06 02:53:24;;;;;;;5.20;5.00;;;;;;;;;;4998982;28;20044;-70
2022/10/06 02:56:02;;;;;;;5.40;5.20;;;;;;;;;;5001343;28;20545;-70
2022/10/06 02:58:28;;;;;;;4.95;4.70;;;;;;;;;;5000879;28;20022;-70
2022/10/06 03:01:09;;;;;;;5.55;5.35;;;;;;;;;;5003585;28;20037;-70
2022/10/06 03:03:35;;;;;;;5.38;5.18;;;;;;;;;;5003828;28;20037;-70
2022/10/06 03:06:20;;;;;;;5.30;5.10;;;;;;;;;;5003824;28;20241;-70
2022/10/06 03:08:54;;;;;;;5.20;5.00;;;;;;;;;;4995909;28;20034;-70
2022/10/06 03:11:23;;;;;;;5.30;5.10;;;;;;;;;;4993583;28;20042;-70
2022/10/06 03:13:50;;;;;;;5.10;4.90;;;;;;;;;;4994766;28;20034;-69
2022/10/06 03:16:18;;;;;;;5.60;5.30;;;;;;;;;;4999257;28;20405;-69
2022/10/06 03:18:45;;;;;;;5.15;4.95;;;;;;;;;;5000587;28;20041;-69
2022/10/06 03:21:17;;;;;;;5.20;5.00;;;;;;;;;;4994528;28;20050;-69
2022/10/06 03:23:46;;;;;;;5.10;4.90;;;;;;;;;;5000127;28;20123;-69
2022/10/06 03:26:16;;;;;;;5.07;4.88;;;;;;;;;;4999865;28;20538;-70
2022/10/06 03:28:43;;;;;;;4.90;4.70;;;;;;;;;;4992413;28;20113;-70
2022/10/06 03:31:12;;;;;;;5.18;4.97;;;;;;;;;;4996436;28;20516;-69
2022/10/06 03:33:38;;;;;;;5.03;4.82;;;;;;;;;;4997120;28;20116;-70
2022/10/06 03:36:06;;;;;;;5.03;4.82;;;;;;;;;;5007582;28;20121;-69
2022/10/06 03:38:33;;;;;;;5.38;5.18;;;;;;;;;;5007705;28;20108;-70
2022/10/06 03:41:07;;;;;;;5.10;4.90;;;;;;;;;;5005713;28;20053;-70
2022/10/06 03:43:33;;;;;;;5.03;4.82;;;;;;;;;;4998153;28;20038;-69
2022/10/06 03:46:00;;;;;;;5.22;5.03;;;;;;;;;;4993788;28;20044;-70
2022/10/06 03:48:29;;;;;;;5.03;4.82;;;;;;;;;;4997122;28;20034;-69
2022/10/06 03:50:58;;;;;;;4.97;4.78;;;;;;;;;;5000547;28;20065;-69
2022/10/06 03:53:27;;;;;;;4.90;4.70;;;;;;;;;;5007321;28;20041;-70
2022/10/06 03:56:17;;;;;;;5.10;4.90;;;;;;;;;;5000211;28;20034;-69
2022/10/06 03:58:45;;;;;;;5.00;4.80;;;;;;;;;;4994063;28;20030;-70
2022/10/06 04:01:33;;;;;;;5.15;4.95;;;;;;;;;;5005250;28;20041;-70
2022/10/06 04:04:03;;;;;;;5.28;5.07;;;;;;;;;;4992688;28;20501;-70
2022/10/06 04:06:32;;;;;;;4.90;4.70;;;;;;;;;;5003143;28;20072;-70
2022/10/06 04:08:58;;;;;;;5.03;4.82;;;;;;;;;;5003112;28;20271;-70
2022/10/06 04:11:30;;;;;;;5.55;5.35;;;;;;;;;;5007601;28;20045;-69
2022/10/06 04:14:00;;;;;;;5.15;4.95;;;;;;;;;;5001022;28;20400;-70
2022/10/06 04:16:30;;;;;;;5.30;5.10;;;;;;;;;;5006309;28;20044;-70
2022/10/06 04:18:59;;;;;;;5.45;5.25;;;;;;;;;;5003186;28;20390;-69
2022/10/06 04:21:27;;;;;;;5.25;5.05;;;;;;;;;;5003681;28;20034;-70
2022/10/06 04:23:58;;;;;;;5.30;5.10;;;;;;;;;;4995227;28;20070;-70
2022/10/06 04:26:29;;;;;;;5.30;5.10;;;;;;;;;;4994980;28;20034;-70
2022/10/06 04:28:56;;;;;;;5.38;5.18;;;;;;;;;;5019928;28;20069;-69
2022/10/06 04:31:28;;;;;;;5.35;5.15;;;;;;;;;;5001741;28;20116;-69
2022/10/06 04:33:58;;;;;;;5.50;5.30;;;;;;;;;;4996054;28;20042;-70
2022/10/06 04:36:31;;;;;;;5.40;5.20;;;;;;;;;;4994170;28;20034;-70
2022/10/06 04:39:00;;;;;;;5.28;5.07;;;;;;;;;;5003900;28;20077;-70
2022/10/06 04:41:30;;;;;;;5.50;5.30;;;;;;;;;;5006147;28;20034;-70
2022/10/06 04:43:57;;;;;;;5.85;5.55;;;;;;;;;;4995283;28;20038;-70
2022/10/06 04:46:25;;;;;;;5.25;5.05;;;;;;;;;;4995041;28;20100;-70
2022/10/06 04:48:51;;;;;;;5.82;5.53;;;;;;;;;;4996727;28;20053;-70
2022/10/06 04:51:18;;;;;;;5.82;5.53;;;;;;;;;;5000877;28;20033;-70
2022/10/06 04:53:44;;;;;;;5.30;5.10;;;;;;;;;;4998936;28;20117;-70
2022/10/06 04:56:18;;;;;;;5.90;5.60;;;;;;;;;;4996060;28;20030;-70
2022/10/06 04:58:46;;;;;;;5.90;5.60;;;;;;;;;;4997372;28;20374;-70
2022/10/06 05:01:17;;;;;;;6.07;5.78;;;;;;;;;;5001756;28;20030;-69
2022/10/06 05:03:44;;;;;;;5.45;5.25;;;;;;;;;;4999158;28;20034;-70
2022/10/06 05:06:13;;;;;;;5.63;5.40;;;;;;;;;;5000937;28;20029;-69
2022/10/06 05:08:38;;;;;;;5.60;5.40;;;;;;;;;;4985254;28;20030;-70
2022/10/06 05:11:07;;;;;;;6.00;5.70;;;;;;;;;;5003816;28;20030;-70
2022/10/06 05:13:36;;;;;;;6.22;5.93;;;;;;;;;;5005390;28;20117;-70
2022/10/06 05:16:04;;;;;;;5.85;5.55;;;;;;;;;;5001891;28;20046;-70
2022/10/06 05:18:32;;;;;;;6.03;5.72;;;;;;;;;;4995959;28;20528;-70
2022/10/06 05:21:10;;;;;;;5.82;5.53;;;;;;;;;;5018190;28;20030;-69
2022/10/06 05:23:38;;;;;;;5.93;5.63;;;;;;;;;;5000622;28;20040;-69
2022/10/06 05:26:05;;;;;;;6.15;5.85;;;;;;;;;;5008873;28;20117;-70
2022/10/06 05:28:32;;;;;;;5.78;5.47;;;;;;;;;;5005874;28;20031;-70
2022/10/06 05:30:59;;;;;;;5.97;5.68;;;;;;;;;;5002729;28;20482;-70
2022/10/06 05:33:28;;;;;;;5.80;5.50;;;;;;;;;;5020171;28;20034;-70
2022/10/06 05:35:58;;;;;;;5.93;5.63;;;;;;;;;;4991887;28;20133;-70
2022/10/06 05:38:24;;;;;;;6.15;5.85;;;;;;;;;;4998449;28;20514;-70
2022/10/06 05:40:59;;;;;;;6.20;5.90;;;;;;;;;;4999347;28;20037;-70
2022/10/06 05:43:25;;;;;;;5.35;5.15;;;;;;;;;;5005462;28;20033;-70
2022/10/06 05:45:56;;;;;;;5.30;5.10;;;;;;;;;;4997756;28;20045;-70
2022/10/06 05:48:22;;;;;;;4.97;4.78;;;;;;;;;;4997212;28;20117;-70
2022/10/06 05:50:56;;;;;;;5.20;5.00;;;;;;;;;;4988493;28;20053;-70
2022/10/06 05:53:21;;;;;;;5.18;4.97;;;;;;;;;;4990923;28;20026;-70
2022/10/06 05:55:47;;;;;;;5.30;5.10;;;;;;;;;;5004686;28;20037;-70
2022/10/06 05:58:13;;;;;;;5.30;5.10;;;;;;;;;;4996104;28;20030;-70
2022/10/06 06:00:39;;;;;;;5.80;5.50;;;;;;;;;;4995725;28;20042;-70
2022/10/06 06:03:08;;;;;;;5.40;5.20;;;;;;;;;;4994774;28;20096;-70
2022/10/06 06:05:38;;;;;;;5.32;5.13;;;;;;;;;;4992830;28;20061;-70
2022/10/06 06:08:04;;;;;;;5.60;5.40;;;;;;;;;;4996293;28;20097;-70
2022/10/06 06:10:31;;;;;;;5.85;5.55;;;;;;;;;;5000016;28;20038;-70
2022/10/06 06:12:56;;;;;;;5.53;5.32;;;;;;;;;;4995700;28;20030;-70
2022/10/06 06:18:20;;;;;;;7.97;5.63;;;;;;;;;;4998496;28;20491;-70
2022/10/06 06:20:57;;;;;;;6.45;6.07;;;;;;;;;;4987090;28;20118;-70
2022/10/06 06:23:23;;;;;;;5.10;4.90;;;;;;;;;;5002269;28;20041;-70
2022/10/06 06:26:00;;;;;;;5.35;5.15;;;;;;;;;;5000029;28;20030;-70
2022/10/06 06:28:29;;;;;;;5.25;5.05;;;;;;;;;;4999138;28;20162;-73
2022/10/06 06:31:02;;;;;;;;;;;;;;;;;;4993840;28;20045;-70
2022/10/06 06:33:30;;;;;;;5.22;5.03;;;;;;;;;;5002544;28;19914;-70
2022/10/06 06:35:56;;;;;;;5.32;5.13;;;;;;;;;;5008534;28;20110;-70
2022/10/06 06:38:22;;;;;;;5.35;5.15;;;;;;;;;;5026234;28;20057;-70
2022/10/06 06:40:49;;;;;;;5.57;5.38;;;;;;;;;;4995727;28;20164;-70
2022/10/06 06:43:15;;;;;;;5.30;5.10;;;;;;;;;;5002430;28;20448;-70
2022/10/06 06:46:07;;;;;;;5.30;5.10;;;;;;;;;;4996480;28;20049;-70
2022/10/06 06:48:51;;;;;;;5.30;5.10;;;;;;;;;;5001175;28;20074;-70
2022/10/06 06:51:18;;;;;;;6.13;5.70;;;;;;;;;;5000635;28;20112;-70
2022/10/06 06:53:43;;;;;;;5.40;5.20;;;;;;;;;;5001109;28;20601;-70
2022/10/06 06:56:09;;;;;;;5.28;5.07;;;;;;;;;;5009446;28;20112;-70
2022/10/06 06:58:35;;;;;;;5.88;5.57;;;;;;;;;;4987999;28;20026;-70
2022/10/06 07:01:12;;;;;;;5.30;5.10;;;;;;;;;;4998996;28;20038;-70
2022/10/06 07:03:40;;;;;;;5.17;4.97;;;;;;;;;;5007050;28;20062;-70
2022/10/06 07:06:10;;;;;;;5.40;5.20;;;;;;;;;;5008452;28;20034;-70
2022/10/06 07:08:39;;;;;;;5.55;5.35;;;;;;;;;;4992250;28;20030;-70
2022/10/06 07:11:14;;;;;;;5.80;5.50;;;;;;;;;;5024489;28;20092;-70
2022/10/06 07:13:42;;;;;;;5.40;5.20;;;;;;;;;;4998762;28;20030;-70
2022/10/06 07:27:10;;;;;;;5.88;5.57;;;;;;;;;;5006814;28;20417;-71
2022/10/06 07:29:36;;;;;;;5.95;5.65;;;;;;;;;;5003742;28;20105;-71
2022/10/06 07:32:02;;;;;;;5.57;5.35;;;;;;;;;;5001564;28;20114;-70
2022/10/06 07:34:31;;;;;;;5.70;5.40;;;;;;;;;;5002923;28;20042;-71
2022/10/06 07:36:56;;;;;;;6.30;6.00;;;;;;;;;;4996755;28;20030;-72
2022/10/06 07:39:22;;;;;;;5.63;5.40;;;;;;;;;;5003712;28;20052;-71
2022/10/06 07:41:48;;;;;;;6.00;5.70;;;;;;;;;;5002558;28;20026;-72
2022/10/06 07:44:14;;;;;;;6.30;6.00;;;;;;;;;;4998584;28;20097;-70
2022/10/06 07:46:42;;;;;;;6.10;5.80;;;;;;;;;;5003907;28;20533;-71
2022/10/06 07:49:13;;;;;;;6.00;5.70;;;;;;;;;;4995761;28;20046;-70
2022/10/06 07:51:41;;;;;;;5.95;5.65;;;;;;;;;;4992868;28;20393;-71
2022/10/06 07:54:07;;;;;;;5.53;5.32;;;;;;;;;;4997499;28;20034;-70
2022/10/06 07:56:41;;;;;;;5.50;5.30;;;;;;;;;;5002571;28;20402;-71
2022/10/06 07:59:07;;;;;;;5.30;5.10;;;;;;;;;;4999130;28;20022;-72
2022/10/06 08:01:32;;;;;;;5.50;5.30;;;;;;;;;;5000986;28;20421;-71
2022/10/06 08:03:58;;;;;;;5.60;5.40;;;;;;;;;;5003373;28;20058;-71
2022/10/06 08:06:23;;;;;;;5.45;5.25;;;;;;;;;;5003572;28;20122;-71
2022/10/06 08:08:51;;;;;;;5.40;5.20;;;;;;;;;;5000828;28;20042;-72
2022/10/06 08:11:17;;;;;;;5.10;4.90;;;;;;;;;;5002291;28;20433;-71
2022/10/06 08:13:47;;;;;;;5.50;5.30;;;;;;;;;;4997128;28;20133;-72
2022/10/06 08:16:15;;;;;;;5.30;5.10;;;;;;;;;;4997694;28;20065;-70
2022/10/06 08:18:41;;;;;;;5.60;5.40;;;;;;;;;;4998136;28;20085;-70
2022/10/06 08:21:13;;;;;;;5.40;5.20;;;;;;;;;;5005916;28;20332;-71
2022/10/06 08:23:41;;;;;;;5.20;5.00;;;;;;;;;;5005904;28;20029;-71
2022/10/06 08:26:08;;;;;;;5.47;5.28;;;;;;;;;;4999146;28;20039;-71
2022/10/06 08:28:35;;;;;;;5.63;5.40;;;;;;;;;;5001469;28;20045;-71
2022/10/06 08:31:11;;;;;;;5.50;5.30;;;;;;;;;;5004799;28;20033;-70
2022/10/06 08:33:38;;;;;;;5.65;5.40;;;;;;;;;;4999396;28;20029;-71
2022/10/06 08:36:07;;;;;;;5.78;5.47;;;;;;;;;;5000339;28;20252;-71
2022/10/06 08:38:35;;;;;;;5.38;5.18;;;;;;;;;;4995253;28;20513;-70
2022/10/06 08:41:01;;;;;;;5.40;5.20;;;;;;;;;;4993484;28;20049;-72
2022/10/06 08:43:29;;;;;;;5.60;5.40;;;;;;;;;;4990450;28;20030;-71
2022/10/06 08:45:59;;;;;;;5.40;5.20;;;;;;;;;;4996432;28;20030;-72
2022/10/06 08:48:27;;;;;;;5.75;5.45;;;;;;;;;;4997476;28;20030;-71
2022/10/06 08:51:11;;;;;;;5.65;5.40;;;;;;;;;;5003550;28;20042;-71
2022/10/06 08:54:08;;;;;;;5.82;5.53;;;;;;;;;;4997212;28;20044;-70
2022/10/06 08:56:55;;;;;;;5.85;5.55;;;;;;;;;;4999918;28;20085;-70
2022/10/06 08:59:21;;;;;;;5.60;5.40;;;;;;;;;;4996797;28;20482;-71
2022/10/06 09:01:50;;;;;;;5.80;5.50;;;;;;;;;;4998879;28;20105;-72
2022/10/06 09:04:25;;;;;;;5.90;5.60;;;;;;;;;;4998635;28;20057;-72
2022/10/06 09:07:14;;;;;;;5.63;5.40;;;;;;;;;;5001648;28;20293;-70
2022/10/06 09:09:45;;;;;;;5.80;5.50;;;;;;;;;;4996383;28;20542;-70
2022/10/06 09:12:30;;;;;;;5.43;5.22;;;;;;;;;;4996310;28;20038;-72
2022/10/06 09:15:19;;;;;;;5.70;5.40;;;;;;;;;;5001176;28;20026;-72
2022/10/06 09:17:53;;;;;;;6.00;5.70;;;;;;;;;;4997167;28;20041;-70
2022/10/06 09:20:23;;;;;;;5.30;5.10;;;;;;;;;;4998530;28;20030;-71
2022/10/06 09:22:50;;;;;;;4.90;4.70;;;;;;;;;;4995128;28;20402;-70
2022/10/06 09:25:27;;;;;;;5.32;5.13;;;;;;;;;;4998854;28;20034;-72
2022/10/06 09:27:58;;;;;;;5.30;5.10;;;;;;;;;;4998423;28;20030;-71
2022/10/06 09:30:24;;;;;;;5.40;5.20;;;;;;;;;;4998826;28;20033;-71
2022/10/06 09:33:17;;;;;;;5.53;5.32;;;;;;;;;;4999036;28;20029;-72
2022/10/06 09:36:08;;;;;;;5.80;5.50;;;;;;;;;;4998216;28;20371;-73
2022/10/06 09:38:54;;;;;;;5.57;5.38;;;;;;;;;;5000796;28;20421;-72
2022/10/06 09:41:25;;;;;;;5.30;5.10;;;;;;;;;;5000967;28;20436;-71
2022/10/06 09:44:27;;;;;;;5.10;4.90;;;;;;;;;;5000056;28;20033;-70
2022/10/06 09:46:53;;;;;;;6.07;5.78;;;;;;;;;;4997756;28;20069;-73
2022/10/06 09:49:19;;;;;;;5.72;5.43;;;;;;;;;;5008077;28;20405;-71
2022/10/06 09:52:14;;;;;;;5.57;5.38;;;;;;;;;;5000159;28;20076;-72
2022/10/06 09:54:42;;;;;;;5.22;5.03;;;;;;;;;;4996011;28;20030;-70
2022/10/06 09:57:13;;;;;;;5.53;5.32;;;;;;;;;;4993665;28;20026;-72
2022/10/06 09:59:43;;;;;;;5.45;5.25;;;;;;;;;;4994288;28;20026;-71
2022/10/06 10:02:39;;;;;;;5.43;5.22;;;;;;;;;;4996741;28;20041;-71
2022/10/06 10:05:18;;;;;;;5.70;5.40;;;;;;;;;;4998790;28;20394;-71
2022/10/06 10:07:46;;;;;;;5.35;5.15;;;;;;;;;;4992821;28;20464;-71
2022/10/06 10:10:22;;;;;;;5.50;5.30;;;;;;;;;;5005441;28;20038;-71
2022/10/06 10:12:56;;;;;;;5.30;5.10;;;;;;;;;;5008350;28;20042;-71
2022/10/06 10:15:25;;;;;;;5.40;5.20;;;;;;;;;;5008229;28;20421;-70
2022/10/06 10:17:52;;;;;;;5.80;5.50;;;;;;;;;;5008716;28;20298;-71
2022/10/06 10:20:28;;;;;;;5.68;5.40;;;;;;;;;;5004150;28;20046;-71
2022/10/06 10:22:57;;;;;;;5.72;5.43;;;;;;;;;;4999653;28;20045;-72
2022/10/06 10:25:58;;;;;;;5.63;5.40;;;;;;;;;;5006746;28;20042;-71
2022/10/06 10:28:49;;;;;;;5.78;5.47;;;;;;;;;;4943177;28;20054;-72
2022/10/06 10:31:21;;;;;;;5.45;5.25;;;;;;;;;;4993938;28;20038;-71
2022/10/06 10:34:06;;;;;;;5.40;5.20;;;;;;;;;;4988741;28;20116;-72
2022/10/06 10:36:56;;;;;;;5.40;5.20;;;;;;;;;;5000867;28;20092;-71
2022/10/06 10:39:48;;;;;;;5.68;5.40;;;;;;;;;;5003187;28;20026;-71
2022/10/06 10:42:23;;;;;;;5.30;5.10;;;;;;;;;;5006295;28;20104;-71
2022/10/06 10:45:06;;;;;;;5.22;5.03;;;;;;;;;;5007447;28;20112;-72
2022/10/06 10:47:40;;;;;;;5.20;5.00;;;;;;;;;;4995703;28;20401;-71
2022/10/06 10:50:27;;;;;;;5.40;5.20;;;;;;;;;;4997457;28;20034;-71
2022/10/06 10:53:06;;;;;;;5.30;5.10;;;;;;;;;;5008181;28;20042;-71
2022/10/06 10:55:46;;;;;;;5.78;5.47;;;;;;;;;;5000606;28;20081;-71
2022/10/06 10:58:22;;;;;;;6.13;5.82;;;;;;;;;;4992220;28;20041;-72
2022/10/06 11:00:54;;;;;;;5.65;5.38;;;;;;;;;;4995966;28;20057;-71
2022/10/06 11:03:19;;;;;;;6.00;5.70;;;;;;;;;;4996710;28;20050;-71
2022/10/06 11:06:15;;;;;;;5.53;5.32;;;;;;;;;;4991917;28;20354;-72
2022/10/06 11:08:59;;;;;;;5.40;5.20;;;;;;;;;;4983975;28;20051;-72
2022/10/06 11:12:00;;;;;;;5.40;5.20;;;;;;;;;;4999762;28;20069;-72
2022/10/06 11:14:53;;;;;;;5.55;5.35;;;;;;;;;;4973211;28;20045;-71
2022/10/06 11:17:45;;;;;;;6.10;5.80;;;;;;;;;;4994100;28;20035;-72
2022/10/06 11:20:36;;;;;;;6.13;5.82;;;;;;;;;;5000277;28;20042;-71
2022/10/06 11:23:13;;;;;;;5.80;5.50;;;;;;;;;;5007653;28;20038;-71
2022/10/06 11:25:47;;;;;;;5.75;5.45;;;;;;;;;;5003985;28;20026;-71
2022/10/06 11:28:23;;;;;;;5.80;5.50;;;;;;;;;;4993228;28;20045;-72
2022/10/06 11:31:02;;;;;;;5.78;5.47;;;;;;;;;;5006476;28;20037;-71
2022/10/06 11:33:30;;;;;;;;;;;;;;;;;;5005264;28;20076;-72
2022/10/06 11:35:55;;;;;;;5.03;4.82;;;;;;;;;;5005655;28;20336;-72
2022/10/06 11:38:39;;;;;;;5.40;5.20;;;;;;;;;;4996248;28;20034;-71
2022/10/06 11:41:30;;;;;;;5.72;5.43;;;;;;;;;;5000454;28;20045;-72
2022/10/06 11:44:31;;;;;;;5.80;5.50;;;;;;;;;;4995280;28;20034;-71
2022/10/06 11:47:23;;;;;;;5.95;5.65;;;;;;;;;;4999900;28;20474;-72
2022/10/06 11:49:51;;;;;;;5.65;5.40;;;;;;;;;;5006727;28;20049;-71
2022/10/06 11:52:17;;;;;;;5.53;5.32;;;;;;;;;;5000855;28;20033;-73
2022/10/06 11:54:53;;;;;;;5.50;5.30;;;;;;;;;;4991393;28;20155;-72
2022/10/06 11:57:22;;;;;;;6.38;6.07;;;;;;;;;;5004075;28;20046;-72
2022/10/06 11:59:52;;;;;;;6.45;6.15;;;;;;;;;;5003237;28;20490;-72
2022/10/06 12:02:33;;;;;;;6.10;5.80;;;;;;;;;;5001144;28;20395;-71
2022/10/06 12:05:08;;;;;;;5.97;5.68;;;;;;;;;;5000931;28;20282;-70
2022/10/06 12:07:55;;;;;;;5.88;5.57;;;;;;;;;;4998316;28;20046;-74
2022/10/06 12:10:27;;;;;;;5.80;5.50;;;;;;;;;;4998145;28;20486;-72
2022/10/06 12:13:14;;;;;;;5.47;5.28;;;;;;;;;;4997600;28;20026;-71
2022/10/06 12:16:05;;;;;;;5.40;5.20;;;;;;;;;;4998791;28;20033;-71
2022/10/06 12:18:48;;;;;;;5.50;5.30;;;;;;;;;;5001036;28;20482;-71
2022/10/06 12:21:18;;;;;;;5.70;5.40;;;;;;;;;;4997855;28;20099;-71
2022/10/06 12:23:53;;;;;;;6.00;5.70;;;;;;;;;;4999267;28;20053;-73
2022/10/06 12:26:33;;;;;;;6.00;5.70;;;;;;;;;;5003253;28;20037;-71
2022/10/06 12:29:19;;;;;;;6.00;5.70;;;;;;;;;;5004332;28;20034;-70
2022/10/06 12:32:01;;;;;;;6.35;6.05;;;;;;;;;;4997152;28;20084;-71
2022/10/06 12:34:53;;;;;;;6.30;6.00;;;;;;;;;;5001694;28;20080;-70
2022/10/06 12:37:43;;;;;;;6.38;6.07;;;;;;;;;;4995305;28;20092;-71
2022/10/06 12:40:47;;;;;;;6.10;5.80;;;;;;;;;;5005726;28;20080;-71
2022/10/06 12:43:13;;;;;;;6.30;6.00;;;;;;;;;;5004778;28;20149;-71
2022/10/06 12:45:57;;;;;;;6.30;6.00;;;;;;;;;;5002300;28;20113;-73
2022/10/06 12:48:34;;;;;;;6.00;5.70;;;;;;;;;;4998268;28;20139;-71
2022/10/06 12:51:17;;;;;;;6.35;6.05;;;;;;;;;;4998621;28;20366;-71
2022/10/06 12:54:18;;;;;;;6.20;5.90;;;;;;;;;;4999892;28;20108;-72
2022/10/06 12:56:57;;;;;;;6.00;5.70;;;;;;;;;;4977136;28;20077;-71
2022/10/06 12:59:26;;;;;;;5.95;5.65;;;;;;;;;;5002068;28;20080;-72
2022/10/06 13:01:58;;;;;;;6.70;6.40;;;;;;;;;;4991647;28;21129;-71
2022/10/06 13:04:33;;;;;;;6.50;6.20;;;;;;;;;;5001433;28;20065;-70
2022/10/06 13:07:15;;;;;;;6.53;6.22;;;;;;;;;;4996074;28;20319;-70
2022/10/06 13:09:41;;;;;;;7.05;6.75;;;;;;;;;;5002403;28;20037;-70
2022/10/06 13:12:19;;;;;;;6.80;6.50;;;;;;;;;;5000324;28;20367;-71
2022/10/06 13:14:46;;;;;;;6.38;6.07;;;;;;;;;;4999619;28;20084;-70
2022/10/06 13:17:12;;;;;;;6.30;6.00;;;;;;;;;;5003224;28;20030;-71
2022/10/06 13:19:43;;;;;;;6.32;6.03;;;;;;;;;;5002985;28;20028;-71
2022/10/06 13:22:13;;;;;;;6.65;6.35;;;;;;;;;;5008855;28;20069;-71
2022/10/06 13:24:39;;;;;;;6.15;5.85;;;;;;;;;;4998483;28;20068;-71
2022/10/06 13:27:04;;;;;;;6.65;6.35;;;;;;;;;;4995918;28;20724;-71
2022/10/06 13:29:30;;;;;;;6.40;6.10;;;;;;;;;;4993436;28;20034;-73
2022/10/06 13:31:56;;;;;;;6.40;6.10;;;;;;;;;;4988509;28;20046;-71
2022/10/06 13:34:31;;;;;;;6.90;6.60;;;;;;;;;;4996371;28;20716;-70
2022/10/06 13:36:58;;;;;;;6.82;6.53;;;;;;;;;;5002180;28;20432;-72
2022/10/06 13:39:30;;;;;;;7.00;6.70;;;;;;;;;;4998671;28;20038;-70
2022/10/06 13:42:00;;;;;;;7.03;6.72;;;;;;;;;;5000077;28;20060;-70
2022/10/06 13:44:34;;;;;;;7.47;7.05;;;;;;;;;;4991530;28;20038;-71
2022/10/06 13:47:03;;;;;;;6.90;6.60;;;;;;;;;;4990475;28;20126;-71
2022/10/06 13:49:47;;;;;;;;;;;;;;;;;;4990423;28;20121;-71
2022/10/06 13:52:33;;;;;;;7.30;6.90;;;;;;;;;;4997692;28;19924;-72
2022/10/06 13:55:00;;;;;;;6.97;6.68;;;;;;;;;;5004909;28;20077;-70
2022/10/06 13:57:42;;;;;;;7.40;7.00;;;;;;;;;;4989458;28;20038;-71
2022/10/06 14:00:13;;;;;;;7.40;7.00;;;;;;;;;;4996446;28;20398;-72
2022/10/06 14:02:48;;;;;;;6.70;6.40;;;;;;;;;;4997353;28;20038;-72
2022/10/06 14:05:44;;;;;;;7.28;6.88;;;;;;;;;;4991434;28;20045;-71
2022/10/06 14:08:10;;;;;;;7.63;7.22;;;;;;;;;;4993348;28;20038;-70
2022/10/06 14:10:54;;;;;;;6.88;6.57;;;;;;;;;;5003384;28;20038;-72
2022/10/06 14:13:22;;;;;;;6.90;6.60;;;;;;;;;;4996885;28;20506;-73
2022/10/06 14:15:56;;;;;;;7.50;7.10;;;;;;;;;;4989295;28;20041;-72
2022/10/06 14:18:28;;;;;;;7.00;6.70;;;;;;;;;;4999878;28;20037;-70
2022/10/06 14:20:56;;;;;;;7.40;7.00;;;;;;;;;;4996620;28;20038;-71
2022/10/06 14:23:46;;;;;;;7.00;6.70;;;;;;;;;;4992305;28;20109;-70
2022/10/06 14:26:13;;;;;;;6.63;6.32;;;;;;;;;;4995286;28;20038;-70
2022/10/06 14:28:44;;;;;;;6.85;6.55;;;;;;;;;;4992834;28;20426;-71
2022/10/06 14:31:10;;;;;;;6.70;6.40;;;;;;;;;;4993424;28;20213;-72
2022/10/06 14:33:36;;;;;;;6.30;6.00;;;;;;;;;;5003623;28;20038;-70
2022/10/06 14:36:02;;;;;;;6.35;6.05;;;;;;;;;;4997691;28;20039;-70
2022/10/06 14:38:28;;;;;;;6.30;6.00;;;;;;;;;;4997219;28;20506;-70
2022/10/06 14:40:54;;;;;;;6.50;6.20;;;;;;;;;;4998951;28;20417;-70
2022/10/06 14:43:19;;;;;;;7.25;6.85;;;;;;;;;;4996257;28;20049;-70
2022/10/06 14:45:45;;;;;;;6.90;6.60;;;;;;;;;;5006493;28;20100;-71
2022/10/06 14:48:14;;;;;;;6.97;6.68;;;;;;;;;;5001416;28;20084;-71
2022/10/06 14:50:42;;;;;;;7.45;7.05;;;;;;;;;;4996200;28;20065;-70
2022/10/06 14:53:11;;;;;;;7.37;6.97;;;;;;;;;;4997700;28;20347;-70
2022/10/06 14:55:37;;;;;;;;;;;;;;;;;;4998574;28;20461;-71
2022/10/06 14:58:03;;;;;;;7.45;7.05;;;;;;;;;;4999636;28;20113;-70
2022/10/06 15:00:28;;;;;;;7.40;7.00;;;;;;;;;;5000350;28;20034;-70
2022/10/06 15:02:55;;;;;;;7.07;6.78;;;;;;;;;;5004473;28;20045;-70
2022/10/06 15:05:22;;;;;;;6.65;6.35;;;;;;;;;;5002915;28;20119;-70
2022/10/06 15:10:31;;;;;;;7.30;6.90;;;;;;;;;;5005297;28;20033;-71
2022/10/06 15:12:57;;;;;;;7.50;7.10;;;;;;;;;;5003364;28;20493;-71
2022/10/06 15:15:23;;;;;;;7.57;7.18;;;;;;;;;;5001185;28;20045;-70
2022/10/06 15:17:48;;;;;;;7.50;7.10;;;;;;;;;;4996232;28;20041;-70
2022/10/06 15:20:16;;;;;;;7.88;7.47;;;;;;;;;;4995628;28;20037;-73
2022/10/06 15:22:42;;;;;;;7.25;6.85;;;;;;;;;;5005328;28;20034;-71
2022/10/06 15:30:40;;;;;;;7.50;7.10;;;;;;;;;;5003659;28;20061;-70
2022/10/06 15:33:06;;;;;;;7.30;6.90;;;;;;;;;;5003283;28;20041;-71
2022/10/06 15:35:32;;;;;;;7.10;6.80;;;;;;;;;;4997327;28;20037;-70